Time;durP1;ratioP1;P1;durP2;ratioP2;P2;SDS_P1;SDS_P2;PMS_P1;PMS_P2;Temp;Humidity;BMP_temperature;BMP_pressure;BME280_temperature;BME280_humidity;BME280_pressure;Samples;Min_cycle;Max_cycle;Signal;HPM_P1;HPM_P2
2021/12/09 00:01:24;;;;;;;7.22;2.55;;;6.60;99.90;;;;;;5043071;28;20059;-80
2021/12/09 00:04:00;;;;;;;15.05;4.47;;;7.30;99.90;;;;;;5059390;28;20048;-79
2021/12/09 00:06:31;;;;;;;11.70;4.13;;;6.50;99.90;;;;;;5077748;28;20566;-82
2021/12/09 00:09:03;;;;;;;14.47;5.23;;;6.50;99.90;;;;;;5045337;28;20045;-80
2021/12/09 00:11:41;;;;;;;11.32;3.80;;;6.50;99.90;;;;;;5061176;28;20305;-80
2021/12/09 00:14:20;;;;;;;15.98;4.65;;;6.60;99.90;;;;;;5043993;28;20049;-78
2021/12/09 00:17:10;;;;;;;15.23;3.78;;;7.90;99.90;;;;;;5056909;28;20057;-86
2021/12/09 00:19:39;;;;;;;10.70;3.83;;;6.90;99.90;;;;;;5033938;28;20060;-80
2021/12/09 00:22:12;;;;;;;8.55;3.38;;;6.50;99.90;;;;;;5039788;28;20057;-81
2021/12/09 00:24:40;;;;;;;9.57;2.90;;;7.10;99.90;;;;;;5054177;28;20055;-79
2021/12/09 00:27:08;;;;;;;22.40;5.18;;;6.50;99.90;;;;;;5056236;28;20060;-81
2021/12/09 00:29:37;;;;;;;14.50;4.47;;;6.90;99.90;;;;;;5046488;28;20986;-80
2021/12/09 00:32:06;;;;;;;26.67;6.28;;;6.50;99.90;;;;;;5060459;28;20120;-82
2021/12/09 00:34:36;;;;;;;12.30;5.68;;;6.50;99.90;;;;;;5061426;28;20045;-79
2021/12/09 00:37:27;;;;;;;14.27;3.22;;;7.00;99.90;;;;;;5061033;28;20045;-83
2021/12/09 00:40:20;;;;;;;13.02;3.22;;;6.50;99.90;;;;;;5062865;28;20052;-82
2021/12/09 00:42:49;;;;;;;13.55;5.50;;;6.50;99.90;;;;;;5050687;28;20132;-82
2021/12/09 00:45:18;;;;;;;9.98;3.15;;;6.70;99.90;;;;;;5062745;28;20065;-81
2021/12/09 00:47:46;;;;;;;13.82;3.05;;;6.60;99.90;;;;;;5060122;28;20049;-79
2021/12/09 00:50:18;;;;;;;16.67;5.40;;;6.40;99.90;;;;;;5061357;28;20041;-82
2021/12/09 00:52:47;;;;;;;18.08;5.13;;;6.90;99.90;;;;;;5060859;28;20045;-79
2021/12/09 00:55:17;;;;;;;16.00;4.38;;;6.40;99.90;;;;;;5061820;28;20053;-82
2021/12/09 00:57:47;;;;;;;28.63;6.18;;;6.40;99.90;;;;;;5059401;28;20052;-82
2021/12/09 01:00:20;;;;;;;16.73;4.50;;;7.30;99.90;;;;;;5058223;28;20037;-80
2021/12/09 01:02:50;;;;;;;17.08;3.75;;;6.40;99.90;;;;;;5037003;28;20053;-79
2021/12/09 01:05:18;;;;;;;16.75;4.50;;;6.40;99.90;;;;;;5061038;28;20053;-79
2021/12/09 01:07:46;;;;;;;20.33;5.10;;;6.40;99.90;;;;;;5060547;28;20060;-80
2021/12/09 01:10:15;;;;;;;16.33;4.75;;;6.40;99.90;;;;;;5057691;28;20053;-81
2021/12/09 01:12:44;;;;;;;28.30;6.65;;;6.40;99.90;;;;;;5056605;28;20037;-81
2021/12/09 01:15:15;;;;;;;9.10;3.42;;;6.40;99.90;;;;;;5041794;28;20065;-83
2021/12/09 01:17:44;;;;;;;19.40;3.58;;;6.40;99.90;;;;;;5044611;28;20060;-80
2021/12/09 01:20:15;;;;;;;21.60;5.75;;;6.50;99.90;;;;;;5045931;28;20061;-81
2021/12/09 01:22:46;;;;;;;24.02;5.97;;;6.40;99.90;;;;;;5043549;28;20052;-82
2021/12/09 01:25:17;;;;;;;13.45;3.67;;;6.40;99.90;;;;;;5059788;28;20048;-79
2021/12/09 01:27:47;;;;;;;9.07;3.33;;;6.40;99.90;;;;;;5068227;28;20033;-80
2021/12/09 01:30:19;;;;;;;22.13;7.80;;;6.40;99.90;;;;;;5046283;28;20060;-79
2021/12/09 01:32:53;;;;;;;24.92;4.72;;;6.40;99.90;;;;;;5051664;28;20049;-80
2021/12/09 01:35:24;;;;;;;15.35;3.20;;;6.40;99.90;;;;;;5064616;28;20049;-79
2021/12/09 01:37:57;;;;;;;;;;;6.40;99.90;;;;;;5062431;28;20056;-80
2021/12/09 01:40:29;;;;;;;12.43;3.33;;;6.40;99.90;;;;;;5063250;28;19927;-80
2021/12/09 01:42:57;;;;;;;;;;;6.40;99.90;;;;;;5063228;28;20055;-79
2021/12/09 01:45:26;;;;;;;16.98;4.82;;;6.40;99.90;;;;;;5046846;28;19920;-79
2021/12/09 01:47:55;;;;;;;10.18;3.17;;;6.60;99.90;;;;;;5061706;28;20060;-79
2021/12/09 01:50:25;;;;;;;21.42;4.10;;;6.40;99.90;;;;;;5064258;28;20049;-79
2021/12/09 01:52:54;;;;;;;9.10;4.20;;;6.40;99.90;;;;;;5061128;28;20041;-80
2021/12/09 01:55:22;;;;;;;10.95;3.78;;;6.40;99.90;;;;;;5041284;28;20049;-80
2021/12/09 01:57:52;;;;;;;30.00;5.88;;;6.50;99.90;;;;;;5047431;28;20045;-81
2021/12/09 02:00:25;;;;;;;18.05;6.20;;;6.10;99.90;;;;;;5059659;28;20481;-81
2021/12/09 02:02:54;;;;;;;16.58;5.07;;;6.50;99.90;;;;;;5040802;28;20057;-79
2021/12/09 02:05:27;;;;;;;11.13;3.78;;;6.50;99.90;;;;;;5051399;28;20395;-81
2021/12/09 02:07:56;;;;;;;15.43;7.57;;;6.50;99.90;;;;;;5050321;28;20055;-79
2021/12/09 02:10:26;;;;;;;15.90;4.43;;;6.60;99.90;;;;;;5064205;28;20159;-79
2021/12/09 02:12:54;;;;;;;14.25;4.10;;;6.50;99.90;;;;;;5064335;28;20053;-81
2021/12/09 02:15:24;;;;;;;10.13;4.13;;;6.60;99.90;;;;;;5048738;28;20049;-80
2021/12/09 02:17:53;;;;;;;15.27;4.18;;;6.50;99.90;;;;;;5048106;28;20045;-83
2021/12/09 02:20:29;;;;;;;8.52;3.13;;;6.50;99.90;;;;;;5044350;28;20185;-80
2021/12/09 02:22:57;;;;;;;13.02;4.10;;;6.30;99.90;;;;;;5042859;28;20053;-83
2021/12/09 02:25:26;;;;;;;16.40;4.32;;;6.60;99.90;;;;;;5026717;28;20049;-81
2021/12/09 02:27:54;;;;;;;22.40;5.28;;;6.90;99.90;;;;;;5045515;28;20060;-80
2021/12/09 02:30:23;;;;;;;21.40;6.68;;;6.60;99.90;;;;;;5041970;28;20060;-80
2021/12/09 02:32:52;;;;;;;23.38;4.43;;;6.60;99.90;;;;;;5042652;28;20049;-82
2021/12/09 02:35:20;;;;;;;18.13;5.35;;;6.60;99.90;;;;;;5062667;28;20049;-79
2021/12/09 02:37:49;;;;;;;26.83;6.28;;;6.60;99.90;;;;;;5063347;28;20062;-82
2021/12/09 02:40:17;;;;;;;17.30;3.67;;;6.80;99.90;;;;;;5062975;28;20060;-80
2021/12/09 02:42:47;;;;;;;18.38;5.85;;;6.50;99.90;;;;;;5061954;28;20053;-80
2021/12/09 02:45:15;;;;;;;12.32;6.10;;;6.60;99.90;;;;;;5045627;28;20052;-79
2021/12/09 02:47:43;;;;;;;7.57;3.40;;;6.60;99.90;;;;;;5058008;28;20054;-82
2021/12/09 02:50:11;;;;;;;20.38;3.90;;;6.80;99.90;;;;;;5027679;28;20054;-80
2021/12/09 02:52:40;;;;;;;14.68;5.07;;;6.60;99.90;;;;;;5044102;28;20050;-80
2021/12/09 02:55:08;;;;;;;14.93;5.75;;;6.60;99.90;;;;;;5046584;28;20053;-81
2021/12/09 02:57:37;;;;;;;14.90;5.10;;;6.60;99.90;;;;;;5059317;28;20044;-85
2021/12/09 03:00:09;;;;;;;12.35;4.55;;;6.50;99.90;;;;;;5011623;28;20053;-82
2021/12/09 03:02:37;;;;;;;9.32;3.15;;;5.50;99.90;;;;;;5045102;28;20046;-79
2021/12/09 03:05:06;;;;;;;24.02;4.57;;;6.50;99.90;;;;;;5058532;28;20051;-82
2021/12/09 03:07:40;;;;;;;11.32;3.28;;;6.50;99.90;;;;;;5062293;28;20051;-82
2021/12/09 03:10:24;;;;;;;15.65;4.05;;;6.40;99.90;;;;;;5055908;28;20049;-80
2021/12/09 03:12:55;;;;;;;17.00;3.28;;;7.10;99.90;;;;;;5045138;28;20041;-83
2021/12/09 03:15:23;;;;;;;;;;;6.40;99.90;;;;;;5061326;28;20063;-81
2021/12/09 03:17:52;;;;;;;17.95;6.07;;;6.40;99.90;;;;;;5046918;28;19924;-80
2021/12/09 03:20:20;;;;;;;12.18;3.78;;;6.30;99.90;;;;;;5059599;28;20052;-83
2021/12/09 03:22:50;;;;;;;18.23;5.30;;;6.30;99.90;;;;;;5028282;28;20053;-82
2021/12/09 03:25:20;;;;;;;16.10;4.70;;;7.10;99.90;;;;;;5046020;28;20530;-79
2021/12/09 03:27:51;;;;;;;10.63;3.00;;;6.70;99.90;;;;;;5046583;28;20059;-84
2021/12/09 03:30:21;;;;;;;18.85;4.07;;;6.10;99.90;;;;;;5045140;28;20049;-82
2021/12/09 03:32:49;;;;;;;9.37;3.40;;;6.20;99.90;;;;;;5026686;28;20063;-80
2021/12/09 03:35:18;;;;;;;15.80;5.65;;;6.20;99.90;;;;;;5064433;28;20524;-81
2021/12/09 03:37:46;;;;;;;21.45;5.50;;;6.10;99.90;;;;;;5064358;28;20051;-80
2021/12/09 03:40:15;;;;;;;25.75;5.68;;;6.20;99.90;;;;;;5064788;28;20051;-79
2021/12/09 03:42:43;;;;;;;22.15;5.93;;;6.10;99.90;;;;;;5065479;28;20067;-79
2021/12/09 03:45:13;;;;;;;11.90;4.25;;;6.80;99.90;;;;;;5065254;28;20052;-79
2021/12/09 03:47:43;;;;;;;17.13;6.03;;;6.90;99.90;;;;;;5044069;28;20047;-79
2021/12/09 03:50:13;;;;;;;14.77;4.20;;;6.10;99.90;;;;;;5061356;28;20430;-79
2021/12/09 03:52:41;;;;;;;15.17;5.17;;;6.10;99.90;;;;;;5056886;28;20049;-80
2021/12/09 03:55:10;;;;;;;14.25;4.13;;;6.10;99.90;;;;;;5042507;28;20056;-82
2021/12/09 03:57:38;;;;;;;17.60;5.05;;;6.20;99.90;;;;;;5048352;28;20041;-80
2021/12/09 04:00:09;;;;;;;14.15;3.90;;;6.40;99.90;;;;;;5051214;28;20038;-80
2021/12/09 04:02:38;;;;;;;13.60;4.82;;;6.10;99.90;;;;;;5048174;28;20056;-80
2021/12/09 04:05:08;;;;;;;10.80;4.00;;;6.60;99.90;;;;;;5064008;28;20055;-82
2021/12/09 04:07:36;;;;;;;17.13;4.30;;;6.10;99.90;;;;;;5062193;28;20051;-78
2021/12/09 04:10:05;;;;;;;18.98;5.43;;;6.20;99.90;;;;;;5047531;28;20041;-79
2021/12/09 04:12:35;;;;;;;11.05;4.95;;;6.10;99.90;;;;;;5063938;28;20057;-81
2021/12/09 04:15:05;;;;;;;17.13;4.47;;;6.10;99.90;;;;;;5062950;28;20056;-81
2021/12/09 04:17:34;;;;;;;21.13;5.72;;;6.00;99.90;;;;;;5045963;28;20053;-79
2021/12/09 04:20:06;;;;;;;5.93;2.47;;;6.00;99.90;;;;;;5063552;28;20057;-82
2021/12/09 04:22:35;;;;;;;18.08;7.88;;;6.00;99.90;;;;;;5064065;28;20045;-80
2021/12/09 04:25:05;;;;;;;13.73;4.57;;;6.00;99.90;;;;;;5064316;28;20049;-81
2021/12/09 04:27:33;;;;;;;18.55;4.55;;;6.00;99.90;;;;;;5043490;28;20055;-80
2021/12/09 04:30:01;;;;;;;12.57;3.50;;;6.00;99.90;;;;;;5044075;28;20041;-82
2021/12/09 04:32:29;;;;;;;17.25;5.00;;;6.00;99.90;;;;;;5039745;28;20061;-83
2021/12/09 04:35:00;;;;;;;12.23;3.60;;;6.20;99.90;;;;;;5043642;28;20045;-80
2021/12/09 04:37:28;;;;;;;17.33;3.42;;;5.90;99.90;;;;;;5028177;28;20076;-80
2021/12/09 04:39:57;;;;;;;17.33;5.28;;;5.90;99.90;;;;;;5064598;28;20064;-82
2021/12/09 04:42:28;;;;;;;15.75;3.50;;;5.90;99.90;;;;;;5063145;28;20053;-79
2021/12/09 04:44:55;;;;;;;29.77;7.00;;;5.90;99.90;;;;;;5044563;28;20046;-79
2021/12/09 04:47:23;;;;;;;11.90;3.47;;;7.70;99.90;;;;;;5047023;28;20052;-80
2021/12/09 04:49:52;;;;;;;14.80;5.13;;;5.90;99.90;;;;;;5067305;28;20045;-79
2021/12/09 04:52:20;;;;;;;27.23;5.75;;;5.90;99.90;;;;;;5067595;28;20056;-79
2021/12/09 04:54:50;;;;;;;10.77;4.13;;;5.90;99.90;;;;;;5067297;28;20055;-79
2021/12/09 04:57:22;;;;;;;13.00;4.65;;;5.90;99.90;;;;;;5050219;28;20059;-78
2021/12/09 04:59:53;;;;;;;13.90;3.58;;;5.90;99.90;;;;;;5048106;28;20054;-78
2021/12/09 05:02:41;;;;;;;12.35;3.10;;;7.20;99.90;;;;;;5048944;28;20041;-80
2021/12/09 05:05:10;;;;;;;15.38;3.70;;;5.90;99.90;;;;;;5061696;28;20049;-79
2021/12/09 05:07:39;;;;;;;14.32;5.03;;;5.80;99.90;;;;;;5068596;28;20067;-79
2021/12/09 05:10:07;;;;;;;6.80;3.97;;;6.70;99.90;;;;;;5067290;28;20045;-79
2021/12/09 05:12:35;;;;;;;23.70;3.45;;;5.80;99.90;;;;;;5064643;28;20350;-79
2021/12/09 05:15:10;;;;;;;7.25;2.72;;;5.80;99.90;;;;;;5067075;28;20045;-78
2021/12/09 05:17:37;;;;;;;14.40;4.05;;;5.80;99.90;;;;;;5065088;28;20055;-79
2021/12/09 05:20:07;;;;;;;10.65;3.22;;;5.80;99.90;;;;;;5045310;28;20423;-79
2021/12/09 05:22:35;;;;;;;25.38;6.15;;;5.70;99.90;;;;;;5046207;28;20053;-80
2021/12/09 05:25:03;;;;;;;6.53;3.03;;;5.70;99.90;;;;;;5047637;28;20053;-79
2021/12/09 05:27:36;;;;;;;10.40;4.20;;;5.70;99.90;;;;;;5045879;28;20055;-80
2021/12/09 05:30:08;;;;;;;15.52;3.97;;;5.70;99.90;;;;;;5048673;28;20053;-80
2021/12/09 05:32:36;;;;;;;16.77;4.63;;;5.60;99.90;;;;;;5048155;28;20052;-79
2021/12/09 05:35:06;;;;;;;12.13;3.60;;;7.80;99.90;;;;;;5065060;28;20037;-79
2021/12/09 05:37:34;;;;;;;18.42;5.18;;;5.60;99.90;;;;;;5064567;28;20063;-80
2021/12/09 05:40:03;;;;;;;10.55;3.47;;;5.60;99.90;;;;;;5049316;28;20045;-83
2021/12/09 05:42:31;;;;;;;15.18;5.45;;;5.60;99.90;;;;;;5048368;28;20049;-83
2021/12/09 05:44:59;;;;;;;16.48;3.70;;;5.50;99.90;;;;;;5065463;28;20057;-80
2021/12/09 05:47:29;;;;;;;15.45;4.32;;;5.50;99.90;;;;;;5065076;28;20052;-81
2021/12/09 05:49:57;;;;;;;12.32;2.97;;;5.40;99.90;;;;;;5063580;28;20059;-79
2021/12/09 05:52:26;;;;;;;25.13;5.97;;;5.40;99.90;;;;;;5046012;28;20120;-79
2021/12/09 05:54:54;;;;;;;12.13;4.13;;;6.20;99.90;;;;;;5064233;28;20045;-79
2021/12/09 05:57:23;;;;;;;16.02;5.65;;;5.40;99.90;;;;;;5063486;28;20053;-78
2021/12/09 05:59:55;;;;;;;10.40;2.95;;;5.40;99.90;;;;;;5046072;28;20049;-79
2021/12/09 06:02:23;;;;;;;;;;;5.80;99.90;;;;;;5057845;28;20060;-78
2021/12/09 06:04:52;;;;;;;14.35;5.32;;;5.30;99.90;;;;;;5062934;28;19920;-79
2021/12/09 06:07:21;;;;;;;12.30;4.20;;;5.30;99.90;;;;;;5061369;28;20053;-79
2021/12/09 06:09:49;;;;;;;16.55;4.00;;;5.20;99.90;;;;;;5027747;28;20084;-82
2021/12/09 06:12:20;;;;;;;9.73;3.65;;;5.60;99.90;;;;;;5026668;28;20407;-80
2021/12/09 06:14:48;;;;;;;31.95;6.38;;;5.20;99.90;;;;;;5029510;28;20049;-81
2021/12/09 06:17:16;;;;;;;11.18;4.45;;;6.00;99.90;;;;;;5064664;28;20052;-79
2021/12/09 06:19:44;;;;;;;22.02;6.68;;;5.30;99.90;;;;;;5025748;28;20058;-80
2021/12/09 06:22:13;;;;;;;21.25;4.75;;;5.10;99.90;;;;;;5050051;28;20056;-78
2021/12/09 06:24:41;;;;;;;16.75;3.30;;;5.10;99.90;;;;;;5062999;28;20049;-79
2021/12/09 06:27:10;;;;;;;14.20;6.70;;;5.80;99.90;;;;;;5030741;28;20087;-78
2021/12/09 06:29:40;;;;;;;16.73;4.72;;;5.70;99.90;;;;;;5047436;28;20049;-80
2021/12/09 06:32:11;;;;;;;14.70;5.45;;;5.00;99.90;;;;;;5040034;28;20045;-79
2021/12/09 06:34:39;;;;;;;13.73;4.85;;;5.90;99.90;;;;;;5066875;28;20064;-80
2021/12/09 06:37:08;;;;;;;14.75;3.78;;;5.00;99.90;;;;;;5066574;28;20064;-80
2021/12/09 06:39:36;;;;;;;16.90;5.03;;;5.00;99.90;;;;;;5050873;28;20059;-78
2021/12/09 06:42:05;;;;;;;10.40;3.63;;;5.00;99.90;;;;;;5046841;28;20046;-79
2021/12/09 06:44:33;;;;;;;20.45;4.15;;;5.00;99.90;;;;;;5065838;28;20055;-78
2021/12/09 06:47:03;;;;;;;32.40;4.20;;;4.90;99.90;;;;;;5066985;28;20053;-78
2021/12/09 06:49:33;;;;;;;22.75;3.95;;;4.90;99.90;;;;;;5066070;28;20390;-80
2021/12/09 06:52:05;;;;;;;13.02;6.88;;;5.40;99.90;;;;;;5047868;28;20049;-80
2021/12/09 06:54:33;;;;;;;7.40;2.35;;;4.90;99.90;;;;;;5066686;28;20049;-80
2021/12/09 06:57:03;;;;;;;12.65;4.35;;;4.90;99.90;;;;;;5054520;28;20060;-80
2021/12/09 06:59:31;;;;;;;12.80;4.97;;;4.80;99.90;;;;;;5057422;28;20507;-83
2021/12/09 07:02:00;;;;;;;16.38;3.85;;;4.80;99.90;;;;;;5056561;28;20585;-79
2021/12/09 07:04:28;;;;;;;16.58;4.85;;;4.80;99.90;;;;;;5060957;28;20053;-79
2021/12/09 07:06:56;;;;;;;12.35;3.15;;;4.80;99.90;;;;;;5059704;28;20055;-81
2021/12/09 07:09:28;;;;;;;12.23;3.80;;;4.80;99.90;;;;;;5051198;28;20080;-80
2021/12/09 07:11:57;;;;;;;17.15;5.28;;;4.80;99.90;;;;;;5049423;28;20046;-79
2021/12/09 07:14:26;;;;;;;15.48;4.28;;;4.80;99.90;;;;;;5048145;28;20049;-80
2021/12/09 07:17:00;;;;;;;17.15;5.88;;;4.70;99.90;;;;;;5052985;28;20043;-79
2021/12/09 07:19:29;;;;;;;16.75;4.10;;;4.80;99.90;;;;;;5018298;28;20051;-78
2021/12/09 07:21:57;;;;;;;22.88;4.85;;;5.00;99.90;;;;;;5053429;28;20277;-79
2021/12/09 07:24:25;;;;;;;20.65;3.63;;;4.70;99.90;;;;;;5071949;28;20038;-79
2021/12/09 07:26:53;;;;;;;14.05;3.63;;;4.80;99.90;;;;;;5041958;28;20052;-78
2021/12/09 07:29:22;;;;;;;11.40;3.40;;;4.70;99.90;;;;;;5050874;28;20049;-80
2021/12/09 07:31:50;;;;;;;12.02;3.88;;;4.70;99.90;;;;;;5056084;28;20060;-80
2021/12/09 07:34:19;;;;;;;9.57;4.20;;;4.70;99.90;;;;;;5043821;28;20388;-78
2021/12/09 07:36:47;;;;;;;17.48;4.00;;;4.70;99.90;;;;;;5042167;28;20053;-82
2021/12/09 07:39:15;;;;;;;7.43;3.88;;;4.80;99.90;;;;;;5060592;28;20049;-79
2021/12/09 07:41:43;;;;;;;17.25;4.07;;;4.70;99.90;;;;;;5060475;28;20049;-78
2021/12/09 07:44:13;;;;;;;18.65;3.67;;;5.20;99.90;;;;;;5035687;28;20063;-80
2021/12/09 07:46:45;;;;;;;10.30;3.63;;;5.10;99.90;;;;;;5060940;28;20037;-78
2021/12/09 07:49:15;;;;;;;11.45;4.60;;;5.00;99.90;;;;;;5074484;28;20050;-80
2021/12/09 07:51:45;;;;;;;;;;;4.70;99.90;;;;;;5052388;28;20041;-79
2021/12/09 08:13:49;;;;;;;;;;;;;;;;;;;;;
2021/12/09 08:20:47;;;;;;;14.20;4.65;;;5.70;99.90;;;;;;4823756;29;20038;-87
2021/12/09 08:23:29;;;;;;;24.13;4.57;;;5.00;99.90;;;;;;4934242;22;20042;-83
2021/12/09 08:25:57;;;;;;;19.13;5.45;;;4.90;99.90;;;;;;5013756;28;20041;-84
2021/12/09 08:28:25;;;;;;;14.98;5.13;;;4.90;99.90;;;;;;5044944;28;20045;-82
2021/12/09 08:30:53;;;;;;;16.50;6.78;;;4.90;99.90;;;;;;5048150;28;20045;-85
2021/12/09 08:33:24;;;;;;;16.95;4.65;;;4.90;99.90;;;;;;5023823;28;20049;-83
2021/12/09 08:35:52;;;;;;;13.75;4.72;;;5.20;99.90;;;;;;5042312;28;20673;-82
2021/12/09 08:38:22;;;;;;;18.15;4.38;;;5.00;99.90;;;;;;5046687;28;20060;-82
2021/12/09 08:40:51;;;;;;;17.02;4.95;;;5.20;99.90;;;;;;5040694;28;20052;-84
2021/12/09 08:43:20;;;;;;;13.23;4.18;;;5.00;99.90;;;;;;5034482;28;20045;-83
2021/12/09 08:45:50;;;;;;;12.77;4.30;;;5.70;99.90;;;;;;5030558;28;20053;-84
2021/12/09 08:48:18;;;;;;;21.58;4.55;;;5.10;99.90;;;;;;5032488;28;20479;-83
2021/12/09 08:50:46;;;;;;;15.52;3.60;;;5.10;99.90;;;;;;5032834;28;20045;-81
2021/12/09 08:53:17;;;;;;;13.73;5.00;;;5.20;99.90;;;;;;5044585;28;20048;-83
2021/12/09 08:55:45;;;;;;;;;;;5.50;99.90;;;;;;5042999;28;20045;-83
2021/12/09 08:58:29;;;;;;;28.13;4.97;;;5.20;99.90;;;;;;5040347;28;19932;-85
2021/12/09 09:01:01;;;;;;;21.17;6.25;;;5.20;99.90;;;;;;5043339;28;20047;-82
2021/12/09 09:03:29;;;;;;;26.55;7.03;;;5.30;99.90;;;;;;5042459;28;20041;-84
2021/12/09 09:05:59;;;;;;;15.10;4.18;;;5.40;99.90;;;;;;5042448;28;20060;-83
2021/12/09 09:08:27;;;;;;;19.67;6.27;;;5.50;99.90;;;;;;5042264;28;20049;-86
2021/12/09 09:10:55;;;;;;;15.10;4.53;;;5.40;99.90;;;;;;5044362;28;20044;-82
2021/12/09 09:13:23;;;;;;;17.42;4.85;;;5.40;99.90;;;;;;5042042;28;20052;-84
2021/12/09 09:15:51;;;;;;;13.30;4.32;;;5.40;99.90;;;;;;5041806;28;20512;-83
2021/12/09 09:18:20;;;;;;;24.33;4.78;;;5.50;99.90;;;;;;5041454;28;20067;-82
2021/12/09 09:20:51;;;;;;;18.23;5.10;;;5.80;99.90;;;;;;5041954;28;20046;-83
2021/12/09 09:23:20;;;;;;;12.52;4.05;;;5.50;99.90;;;;;;5039439;28;20045;-82
2021/12/09 09:25:49;;;;;;;12.20;4.57;;;6.30;99.90;;;;;;5038815;28;20396;-81
2021/12/09 09:28:17;;;;;;;15.75;3.72;;;5.70;99.90;;;;;;5056550;28;20046;-83
2021/12/09 09:30:53;;;;;;;27.20;6.20;;;6.50;99.90;;;;;;5010252;28;20056;-83
2021/12/09 09:33:24;;;;;;;16.15;5.82;;;5.60;99.90;;;;;;5038055;28;20517;-82
2021/12/09 09:35:53;;;;;;;16.33;3.83;;;5.70;99.90;;;;;;5042639;28;20033;-83
2021/12/09 09:38:23;;;;;;;18.67;4.47;;;6.70;99.90;;;;;;5039325;28;20061;-83
2021/12/09 09:41:08;;;;;;;9.60;4.05;;;5.70;99.90;;;;;;5037483;28;20048;-82
2021/12/09 09:46:23;;;;;;;18.13;3.90;;;5.70;99.90;;;;;;5041995;28;20052;-82
2021/12/09 09:48:53;;;;;;;17.33;4.32;;;5.80;99.90;;;;;;5038799;28;20064;-83
2021/12/09 09:51:22;;;;;;;26.05;5.15;;;5.80;99.90;;;;;;5043027;28;20049;-82
2021/12/09 09:53:51;;;;;;;20.73;5.07;;;6.10;99.90;;;;;;5041243;28;20060;-82
2021/12/09 09:56:22;;;;;;;24.30;5.70;;;6.00;99.90;;;;;;5037025;28;20481;-82
2021/12/09 09:58:54;;;;;;;36.88;7.93;;;5.80;99.90;;;;;;5039061;28;20060;-82
2021/12/09 10:01:23;;;;;;;16.85;5.72;;;6.10;99.90;;;;;;5038577;28;20432;-83
2021/12/09 10:03:58;;;;;;;23.95;7.43;;;5.90;99.90;;;;;;5037647;28;20034;-83
2021/12/09 10:06:27;;;;;;;15.07;5.40;;;5.90;99.90;;;;;;5039056;28;20045;-83
2021/12/09 10:08:54;;;;;;;17.10;4.43;;;5.90;99.90;;;;;;5037096;28;20060;-83
2021/12/09 10:11:22;;;;;;;20.70;5.57;;;5.90;99.90;;;;;;5041148;28;20052;-83
2021/12/09 10:13:50;;;;;;;18.02;7.00;;;6.90;99.90;;;;;;5039064;28;20056;-83
2021/12/09 10:16:25;;;;;;;19.60;8.07;;;6.00;99.90;;;;;;5053565;28;20045;-81
2021/12/09 10:18:54;;;;;;;11.95;4.65;;;6.50;99.90;;;;;;5039607;28;20072;-84
2021/12/09 10:21:28;;;;;;;20.35;5.30;;;6.00;99.90;;;;;;5038993;28;20048;-82
2021/12/09 10:24:02;;;;;;;17.30;5.07;;;6.00;99.90;;;;;;5035635;28;20068;-82
2021/12/09 10:26:36;;;;;;;15.48;4.78;;;6.10;99.90;;;;;;5040263;28;20049;-82
2021/12/09 10:29:30;;;;;;;20.50;6.00;;;6.10;99.90;;;;;;5037428;28;20045;-83
2021/12/09 10:32:02;;;;;;;17.75;5.25;;;6.10;99.90;;;;;;5037966;28;20053;-82
2021/12/09 10:34:39;;;;;;;25.67;7.70;;;6.20;99.90;;;;;;5039510;28;20057;-83
2021/12/09 10:37:21;;;;;;;17.20;5.05;;;6.20;99.90;;;;;;5046994;28;20061;-84
2021/12/09 10:39:59;;;;;;;19.25;7.57;;;6.30;99.90;;;;;;5044307;28;20048;-85
2021/12/09 10:42:37;;;;;;;20.77;5.93;;;6.30;99.90;;;;;;5028303;28;20049;-86
2021/12/09 10:45:23;;;;;;;14.52;5.03;;;6.40;99.90;;;;;;5039341;28;20050;-84
2021/12/09 10:48:30;;;;;;;12.52;4.93;;;7.20;99.90;;;;;;5026525;28;20701;-83
2021/12/09 10:56:05;;;;;;;20.63;6.07;;;6.60;99.90;;;;;;5041744;28;20045;-83
2021/12/09 10:58:36;;;;;;;15.25;4.85;;;6.70;99.90;;;;;;5046371;28;20053;-83
2021/12/09 11:01:14;;;;;;;12.88;3.95;;;6.70;99.90;;;;;;5021189;28;20044;-82
2021/12/09 11:03:55;;;;;;;12.95;3.85;;;6.70;99.90;;;;;;5041968;28;20055;-84
2021/12/09 11:06:29;;;;;;;20.75;5.07;;;6.70;99.90;;;;;;5036074;28;20041;-84
2021/12/09 11:08:59;;;;;;;12.77;4.35;;;6.70;99.90;;;;;;5040147;28;20045;-84
2021/12/09 11:11:31;;;;;;;22.33;4.80;;;6.80;99.90;;;;;;5035043;28;20521;-83
2021/12/09 11:14:13;;;;;;;21.75;6.00;;;6.90;99.90;;;;;;5037299;28;20053;-84
2021/12/09 11:16:42;;;;;;;16.38;4.93;;;7.40;99.90;;;;;;4992624;28;20056;-83
2021/12/09 11:19:13;;;;;;;22.73;5.03;;;7.00;99.90;;;;;;5025814;28;20048;-87
2021/12/09 11:21:45;;;;;;;13.05;4.32;;;6.80;99.90;;;;;;5039799;28;20037;-87
2021/12/09 11:24:18;;;;;;;12.88;4.05;;;6.90;99.90;;;;;;5023541;28;20048;-83
2021/12/09 11:26:58;;;;;;;18.10;3.88;;;7.50;99.90;;;;;;5040907;28;20056;-83
2021/12/09 11:29:30;;;;;;;27.60;5.80;;;8.00;99.90;;;;;;5039538;28;20048;-83
2021/12/09 11:32:09;;;;;;;14.35;3.97;;;6.90;99.90;;;;;;5038127;28;20049;-84
2021/12/09 11:35:09;;;;;;;12.77;3.72;;;7.00;99.90;;;;;;5021196;28;20049;-84
2021/12/09 11:37:47;;;;;;;16.17;5.43;;;7.00;99.90;;;;;;5019083;28;20045;-86
2021/12/09 11:40:28;;;;;;;17.60;4.20;;;8.20;99.90;;;;;;5045997;28;20060;-85
2021/12/09 11:43:00;;;;;;;17.73;4.68;;;7.20;99.90;;;;;;5028891;28;20044;-85
2021/12/09 11:45:45;;;;;;;12.63;3.65;;;7.20;99.90;;;;;;5022617;28;20387;-84
2021/12/09 11:48:15;;;;;;;17.33;6.10;;;7.30;99.90;;;;;;5037732;28;20480;-83
2021/12/09 11:50:46;;;;;;;21.05;6.15;;;7.60;99.90;;;;;;5004175;28;20693;-84
2021/12/09 11:53:16;;;;;;;13.48;3.17;;;7.50;99.90;;;;;;5023218;28;20042;-82
2021/12/09 11:55:51;;;;;;;19.42;4.90;;;7.60;99.90;;;;;;5024636;28;20571;-82
2021/12/09 11:58:27;;;;;;;15.18;3.83;;;9.10;99.90;;;;;;5040721;28;20049;-83
2021/12/09 12:07:54;;;;;;;14.10;6.28;;;8.00;99.90;;;;;;5030708;28;20053;-83
2021/12/09 12:13:38;;;;;;;12.48;4.18;;;8.10;99.90;;;;;;5033339;28;20049;-83
2021/12/09 12:19:51;;;;;;;16.13;5.50;;;8.20;99.90;;;;;;5036263;28;20045;-84
2021/12/09 12:35:15;;;;;;;13.73;5.45;;;8.30;99.90;;;;;;4987695;28;20057;-84
2021/12/09 12:41:06;;;;;;;15.05;4.32;;;8.30;99.90;;;;;;4994214;28;20404;-84
2021/12/09 12:43:44;;;;;;;11.13;3.85;;;8.40;99.90;;;;;;5004877;28;20042;-84
2021/12/09 12:46:40;;;;;;;19.38;7.55;;;9.40;99.90;;;;;;4991574;28;20077;-84
2021/12/09 12:49:21;;;;;;;12.75;5.15;;;8.60;99.90;;;;;;4989766;28;20058;-85
2021/12/09 12:52:14;;;;;;;29.50;6.00;;;8.30;99.90;;;;;;4989959;28;20061;-84
2021/12/09 12:55:03;;;;;;;16.33;5.03;;;8.30;99.90;;;;;;5008856;28;20054;-85
2021/12/09 12:57:42;;;;;;;14.40;3.78;;;8.30;99.90;;;;;;4989937;28;20054;-84
2021/12/09 13:00:20;;;;;;;15.77;4.53;;;8.30;99.90;;;;;;5007460;28;20053;-84
2021/12/09 13:13:27;;;;;;;10.60;3.75;;;9.60;99.90;;;;;;5013722;28;20057;-84
2021/12/09 13:16:11;;;;;;;15.20;4.03;;;8.90;99.90;;;;;;4993571;28;20069;-84
2021/12/09 13:21:40;;;;;;;16.60;3.92;;;8.40;99.90;;;;;;5014141;28;20057;-84
2021/12/09 13:30:38;;;;;;;14.20;3.53;;;8.60;99.90;;;;;;5011853;28;20420;-83
2021/12/09 13:36:18;;;;;;;17.42;4.72;;;10.10;99.90;;;;;;4993979;28;20045;-84
2021/12/09 13:55:10;;;;;;;9.15;3.35;;;9.00;99.90;;;;;;5014507;28;20057;-83
2021/12/09 13:57:40;;;;;;;11.88;3.83;;;9.10;99.90;;;;;;4996039;28;20042;-83
2021/12/09 14:00:26;;;;;;;16.58;4.53;;;9.20;99.90;;;;;;5012772;28;20053;-82
2021/12/09 14:03:11;;;;;;;8.35;2.70;;;9.30;99.90;;;;;;4992411;28;20048;-81
2021/12/09 14:05:56;;;;;;;11.10;3.42;;;9.40;99.90;;;;;;4994562;28;20045;-81
2021/12/09 14:08:32;;;;;;;8.52;3.42;;;9.40;99.90;;;;;;5011939;28;20046;-82
2021/12/09 14:11:06;;;;;;;15.13;3.65;;;9.40;99.90;;;;;;5010202;28;20064;-81
2021/12/09 14:13:39;;;;;;;9.35;3.50;;;9.70;99.90;;;;;;4991935;28;20049;-81
2021/12/09 14:16:25;;;;;;;14.35;6.00;;;9.40;99.90;;;;;;4991199;28;20062;-82
2021/12/09 14:21:48;;;;;;;19.33;4.22;;;9.40;99.90;;;;;;5009546;28;20535;-81
2021/12/09 14:24:25;;;;;;;13.60;3.53;;;10.30;99.90;;;;;;4992131;28;20054;-81
2021/12/09 14:26:56;;;;;;;17.65;3.50;;;9.10;99.90;;;;;;4992416;28;20049;-82
2021/12/09 14:29:27;;;;;;;12.43;3.76;;;10.00;99.90;;;;;;4656872;28;10001292;-81
2021/12/09 14:31:58;;;;;;;18.83;4.85;;;9.00;99.90;;;;;;4987875;28;20050;-84
2021/12/09 14:34:28;;;;;;;15.43;4.70;;;9.00;99.90;;;;;;4991351;28;20049;-81
2021/12/09 14:37:01;;;;;;;16.65;3.22;;;8.90;99.90;;;;;;4989800;28;20409;-82
2021/12/09 14:39:31;;;;;;;12.95;4.32;;;8.90;99.90;;;;;;4988349;28;20039;-82
2021/12/09 14:42:15;;;;;;;15.88;5.28;;;8.90;99.90;;;;;;4987603;28;20051;-82
2021/12/09 14:45:08;;;;;;;19.67;4.25;;;8.80;99.90;;;;;;4988144;28;20544;-80
2021/12/09 14:47:36;;;;;;;24.17;4.50;;;8.80;99.90;;;;;;4989592;28;20084;-82
2021/12/09 14:50:07;;;;;;;24.17;5.13;;;8.80;99.90;;;;;;4989819;28;20050;-81
2021/12/09 14:52:43;;;;;;;25.52;9.75;;;8.70;99.90;;;;;;4987245;28;20042;-82
2021/12/09 14:55:13;;;;;;;42.00;18.10;;;8.60;99.90;;;;;;4988409;28;20362;-84
2021/12/09 14:58:13;;;;;;;25.40;11.40;;;8.60;99.90;;;;;;4988609;28;20050;-81